sensor_id;sensor_type;location;lat;lon;timestamp;temperature;humidity
15099;DHT22;33900;53.640;9.942;2023-11-21T00:02:20;12.20;96.60
15099;DHT22;33900;53.640;9.942;2023-11-21T00:04:47;12.30;96.70
15099;DHT22;33900;53.640;9.942;2023-11-21T00:07:13;12.20;96.70
15099;DHT22;33900;53.640;9.942;2023-11-21T00:09:38;12.20;96.70
15099;DHT22;33900;53.640;9.942;2023-11-21T00:12:04;12.20;96.70
15099;DHT22;33900;53.640;9.942;2023-11-21T00:14:30;12.10;96.60
15099;DHT22;33900;53.640;9.942;2023-11-21T00:16:55;12.10;96.50
15099;DHT22;33900;53.640;9.942;2023-11-21T00:19:21;12.00;96.40
15099;DHT22;33900;53.640;9.942;2023-11-21T00:21:47;12.00;96.40
15099;DHT22;33900;53.640;9.942;2023-11-21T00:24:13;12.00;96.50
15099;DHT22;33900;53.640;9.942;2023-11-21T00:26:39;12.00;96.50
15099;DHT22;33900;53.640;9.942;2023-11-21T00:29:05;12.00;96.60
15099;DHT22;33900;53.640;9.942;2023-11-21T00:31:34;11.90;96.40
15099;DHT22;33900;53.640;9.942;2023-11-21T00:34:04;11.90;96.50
15099;DHT22;33900;53.640;9.942;2023-11-21T00:36:31;11.90;96.50
15099;DHT22;33900;53.640;9.942;2023-11-21T00:38:57;11.90;96.50
15099;DHT22;33900;53.640;9.942;2023-11-21T00:41:23;11.90;96.50
15099;DHT22;33900;53.640;9.942;2023-11-21T00:43:48;11.90;96.40
15099;DHT22;33900;53.640;9.942;2023-11-21T00:46:14;11.80;96.30
15099;DHT22;33900;53.640;9.942;2023-11-21T00:48:40;11.80;96.40
15099;DHT22;33900;53.640;9.942;2023-11-21T00:51:06;11.80;96.40
15099;DHT22;33900;53.640;9.942;2023-11-21T00:53:32;11.70;96.30
15099;DHT22;33900;53.640;9.942;2023-11-21T00:55:57;11.70;96.30
15099;DHT22;33900;53.640;9.942;2023-11-21T00:58:24;11.60;96.30
15099;DHT22;33900;53.640;9.942;2023-11-21T01:00:49;11.60;96.30
15099;DHT22;33900;53.640;9.942;2023-11-21T01:03:16;11.60;96.20
15099;DHT22;33900;53.640;9.942;2023-11-21T01:05:41;11.40;96.10
15099;DHT22;33900;53.640;9.942;2023-11-21T01:08:07;11.40;96.20
15099;DHT22;33900;53.640;9.942;2023-11-21T01:10:33;11.40;96.50
15099;DHT22;33900;53.640;9.942;2023-11-21T01:12:59;11.30;96.20
15099;DHT22;33900;53.640;9.942;2023-11-21T01:15:25;11.30;96.20
15099;DHT22;33900;53.640;9.942;2023-11-21T01:17:51;11.30;96.20
15099;DHT22;33900;53.640;9.942;2023-11-21T01:20:17;11.20;96.20
15099;DHT22;33900;53.640;9.942;2023-11-21T01:22:43;11.20;96.30
15099;DHT22;33900;53.640;9.942;2023-11-21T01:25:09;11.20;96.30
15099;DHT22;33900;53.640;9.942;2023-11-21T01:27:36;11.10;96.30
15099;DHT22;33900;53.640;9.942;2023-11-21T01:30:05;11.10;96.30
15099;DHT22;33900;53.640;9.942;2023-11-21T01:32:32;11.10;96.30
15099;DHT22;33900;53.640;9.942;2023-11-21T01:34:58;11.10;96.30
15099;DHT22;33900;53.640;9.942;2023-11-21T01:37:25;11.10;96.40
15099;DHT22;33900;53.640;9.942;2023-11-21T01:39:53;11.00;96.50
15099;DHT22;33900;53.640;9.942;2023-11-21T01:42:23;11.00;96.50
15099;DHT22;33900;53.640;9.942;2023-11-21T01:44:48;11.00;96.60
15099;DHT22;33900;53.640;9.942;2023-11-21T01:47:14;11.00;96.50
15099;DHT22;33900;53.640;9.942;2023-11-21T01:49:43;11.00;96.50
15099;DHT22;33900;53.640;9.942;2023-11-21T01:52:09;11.00;96.50
15099;DHT22;33900;53.640;9.942;2023-11-21T01:54:36;10.90;96.50
15099;DHT22;33900;53.640;9.942;2023-11-21T01:57:02;10.90;96.50
15099;DHT22;33900;53.640;9.942;2023-11-21T01:59:35;10.90;96.40
15099;DHT22;33900;53.640;9.942;2023-11-21T02:02:05;10.90;96.50
15099;DHT22;33900;53.640;9.942;2023-11-21T02:04:32;10.90;96.50
15099;DHT22;33900;53.640;9.942;2023-11-21T02:06:57;10.90;96.50
15099;DHT22;33900;53.640;9.942;2023-11-21T02:09:26;10.90;96.50
15099;DHT22;33900;53.640;9.942;2023-11-21T02:11:53;10.80;96.50
15099;DHT22;33900;53.640;9.942;2023-11-21T02:14:20;10.80;96.50
15099;DHT22;33900;53.640;9.942;2023-11-21T02:16:48;10.80;96.40
15099;DHT22;33900;53.640;9.942;2023-11-21T02:19:18;10.80;96.30
15099;DHT22;33900;53.640;9.942;2023-11-21T02:21:52;10.80;96.30
15099;DHT22;33900;53.640;9.942;2023-11-21T02:24:21;10.70;96.30
15099;DHT22;33900;53.640;9.942;2023-11-21T02:26:47;10.70;96.30
15099;DHT22;33900;53.640;9.942;2023-11-21T02:29:13;10.70;96.30
15099;DHT22;33900;53.640;9.942;2023-11-21T02:31:42;10.70;96.40
15099;DHT22;33900;53.640;9.942;2023-11-21T02:34:14;10.70;96.30
15099;DHT22;33900;53.640;9.942;2023-11-21T02:36:39;10.70;96.30
15099;DHT22;33900;53.640;9.942;2023-11-21T02:39:06;10.60;96.20
15099;DHT22;33900;53.640;9.942;2023-11-21T02:41:33;10.60;96.20
15099;DHT22;33900;53.640;9.942;2023-11-21T02:44:00;10.60;96.20
15099;DHT22;33900;53.640;9.942;2023-11-21T02:46:26;10.60;96.20
15099;DHT22;33900;53.640;9.942;2023-11-21T02:48:52;10.60;96.20
15099;DHT22;33900;53.640;9.942;2023-11-21T02:51:19;10.60;96.30
15099;DHT22;33900;53.640;9.942;2023-11-21T02:53:45;10.60;96.30
15099;DHT22;33900;53.640;9.942;2023-11-21T02:56:12;10.60;96.30
15099;DHT22;33900;53.640;9.942;2023-11-21T02:58:41;10.70;96.30
15099;DHT22;33900;53.640;9.942;2023-11-21T03:01:07;10.70;96.30
15099;DHT22;33900;53.640;9.942;2023-11-21T03:03:44;10.70;96.30
15099;DHT22;33900;53.640;9.942;2023-11-21T03:06:10;10.70;96.20
15099;DHT22;33900;53.640;9.942;2023-11-21T03:08:35;10.70;96.20
15099;DHT22;33900;53.640;9.942;2023-11-21T03:11:01;10.70;96.20
15099;DHT22;33900;53.640;9.942;2023-11-21T03:13:32;10.60;96.20
15099;DHT22;33900;53.640;9.942;2023-11-21T03:15:57;10.50;96.20
15099;DHT22;33900;53.640;9.942;2023-11-21T03:18:23;10.70;96.30
15099;DHT22;33900;53.640;9.942;2023-11-21T03:20:49;10.60;96.20
15099;DHT22;33900;53.640;9.942;2023-11-21T03:23:14;10.60;96.30
15099;DHT22;33900;53.640;9.942;2023-11-21T03:25:40;10.60;96.30
15099;DHT22;33900;53.640;9.942;2023-11-21T03:28:12;10.60;96.30
15099;DHT22;33900;53.640;9.942;2023-11-21T03:30:38;10.60;96.60
15099;DHT22;33900;53.640;9.942;2023-11-21T03:33:04;10.60;96.30
15099;DHT22;33900;53.640;9.942;2023-11-21T03:35:29;10.60;96.30
15099;DHT22;33900;53.640;9.942;2023-11-21T03:37:55;10.60;96.30
15099;DHT22;33900;53.640;9.942;2023-11-21T03:43:13;10.50;96.30
15099;DHT22;33900;53.640;9.942;2023-11-21T03:45:38;10.50;96.20
15099;DHT22;33900;53.640;9.942;2023-11-21T03:48:06;10.50;96.20
15099;DHT22;33900;53.640;9.942;2023-11-21T03:50:31;10.60;96.30
15099;DHT22;33900;53.640;9.942;2023-11-21T03:52:58;10.50;96.20
15099;DHT22;33900;53.640;9.942;2023-11-21T03:55:24;10.50;96.20
15099;DHT22;33900;53.640;9.942;2023-11-21T03:57:50;10.50;96.20
15099;DHT22;33900;53.640;9.942;2023-11-21T04:00:18;10.50;96.20
15099;DHT22;33900;53.640;9.942;2023-11-21T04:02:45;10.50;96.20
15099;DHT22;33900;53.640;9.942;2023-11-21T04:05:11;10.50;96.20
15099;DHT22;33900;53.640;9.942;2023-11-21T04:07:37;10.50;96.20
15099;DHT22;33900;53.640;9.942;2023-11-21T04:10:04;10.60;96.20
15099;DHT22;33900;53.640;9.942;2023-11-21T04:12:32;10.60;96.20
15099;DHT22;33900;53.640;9.942;2023-11-21T04:14:58;10.50;96.10
15099;DHT22;33900;53.640;9.942;2023-11-21T04:17:24;10.50;96.20
15099;DHT22;33900;53.640;9.942;2023-11-21T04:19:49;10.50;96.20
15099;DHT22;33900;53.640;9.942;2023-11-21T04:22:15;10.50;96.20
15099;DHT22;33900;53.640;9.942;2023-11-21T04:24:41;10.50;96.20
15099;DHT22;33900;53.640;9.942;2023-11-21T04:27:06;10.50;96.10
15099;DHT22;33900;53.640;9.942;2023-11-21T04:29:32;10.50;96.10
15099;DHT22;33900;53.640;9.942;2023-11-21T04:31:57;10.40;96.10
15099;DHT22;33900;53.640;9.942;2023-11-21T04:34:23;10.50;96.20
15099;DHT22;33900;53.640;9.942;2023-11-21T04:36:49;10.50;96.10
15099;DHT22;33900;53.640;9.942;2023-11-21T04:39:15;10.50;96.10
15099;DHT22;33900;53.640;9.942;2023-11-21T04:41:41;10.40;96.10
15099;DHT22;33900;53.640;9.942;2023-11-21T04:44:06;10.50;96.20
15099;DHT22;33900;53.640;9.942;2023-11-21T04:46:32;10.40;96.10
15099;DHT22;33900;53.640;9.942;2023-11-21T04:48:58;10.50;96.20
15099;DHT22;33900;53.640;9.942;2023-11-21T04:51:24;10.50;96.20
15099;DHT22;33900;53.640;9.942;2023-11-21T04:53:49;10.50;96.20
15099;DHT22;33900;53.640;9.942;2023-11-21T04:56:15;10.50;96.10
15099;DHT22;33900;53.640;9.942;2023-11-21T04:58:41;10.50;96.20
15099;DHT22;33900;53.640;9.942;2023-11-21T05:01:07;10.50;96.20
15099;DHT22;33900;53.640;9.942;2023-11-21T05:03:33;10.50;96.20
15099;DHT22;33900;53.640;9.942;2023-11-21T05:05:59;10.50;96.20
15099;DHT22;33900;53.640;9.942;2023-11-21T05:08:25;10.50;96.20
15099;DHT22;33900;53.640;9.942;2023-11-21T05:10:51;10.50;96.10
15099;DHT22;33900;53.640;9.942;2023-11-21T05:13:17;10.40;96.10
15099;DHT22;33900;53.640;9.942;2023-11-21T05:15:44;10.40;96.10
15099;DHT22;33900;53.640;9.942;2023-11-21T05:18:10;10.40;96.10
15099;DHT22;33900;53.640;9.942;2023-11-21T05:20:35;10.40;96.10
15099;DHT22;33900;53.640;9.942;2023-11-21T05:23:04;10.40;96.10
15099;DHT22;33900;53.640;9.942;2023-11-21T05:25:30;10.50;96.10
15099;DHT22;33900;53.640;9.942;2023-11-21T05:27:56;10.40;96.10
15099;DHT22;33900;53.640;9.942;2023-11-21T05:30:21;10.40;96.10
15099;DHT22;33900;53.640;9.942;2023-11-21T05:32:47;10.40;96.10
15099;DHT22;33900;53.640;9.942;2023-11-21T05:35:13;10.40;96.10
15099;DHT22;33900;53.640;9.942;2023-11-21T05:37:41;10.40;96.10
15099;DHT22;33900;53.640;9.942;2023-11-21T05:40:07;10.40;96.10
15099;DHT22;33900;53.640;9.942;2023-11-21T05:42:33;10.40;96.10
15099;DHT22;33900;53.640;9.942;2023-11-21T05:44:59;10.40;96.10
15099;DHT22;33900;53.640;9.942;2023-11-21T05:47:38;10.40;96.10
15099;DHT22;33900;53.640;9.942;2023-11-21T05:50:06;10.50;96.20
15099;DHT22;33900;53.640;9.942;2023-11-21T05:52:32;10.40;96.20
15099;DHT22;33900;53.640;9.942;2023-11-21T05:55:00;10.40;96.20
15099;DHT22;33900;53.640;9.942;2023-11-21T05:57:26;10.50;96.20
15099;DHT22;33900;53.640;9.942;2023-11-21T05:59:51;10.50;96.20
15099;DHT22;33900;53.640;9.942;2023-11-21T06:02:17;10.40;96.20
15099;DHT22;33900;53.640;9.942;2023-11-21T06:04:44;10.50;96.30
15099;DHT22;33900;53.640;9.942;2023-11-21T06:07:09;10.50;96.30
15099;DHT22;33900;53.640;9.942;2023-11-21T06:09:36;10.40;96.30
15099;DHT22;33900;53.640;9.942;2023-11-21T06:12:02;10.40;96.30
15099;DHT22;33900;53.640;9.942;2023-11-21T06:14:29;10.40;96.30
15099;DHT22;33900;53.640;9.942;2023-11-21T06:16:55;10.40;96.30
15099;DHT22;33900;53.640;9.942;2023-11-21T06:19:21;10.40;96.30
15099;DHT22;33900;53.640;9.942;2023-11-21T06:21:47;10.40;96.30
15099;DHT22;33900;53.640;9.942;2023-11-21T06:24:13;10.40;96.30
15099;DHT22;33900;53.640;9.942;2023-11-21T06:26:40;10.40;96.30
15099;DHT22;33900;53.640;9.942;2023-11-21T06:29:06;10.50;96.40
15099;DHT22;33900;53.640;9.942;2023-11-21T06:31:32;10.40;96.40
15099;DHT22;33900;53.640;9.942;2023-11-21T06:33:58;10.40;96.40
15099;DHT22;33900;53.640;9.942;2023-11-21T06:36:25;10.40;96.40
15099;DHT22;33900;53.640;9.942;2023-11-21T06:38:52;10.40;96.40
15099;DHT22;33900;53.640;9.942;2023-11-21T06:41:17;10.40;96.40
15099;DHT22;33900;53.640;9.942;2023-11-21T06:43:43;10.40;96.80
15099;DHT22;33900;53.640;9.942;2023-11-21T06:46:12;10.40;96.40
15099;DHT22;33900;53.640;9.942;2023-11-21T06:48:42;10.40;96.40
15099;DHT22;33900;53.640;9.942;2023-11-21T06:51:07;10.40;96.40
15099;DHT22;33900;53.640;9.942;2023-11-21T06:53:33;10.40;96.50
15099;DHT22;33900;53.640;9.942;2023-11-21T06:55:59;10.40;96.50
15099;DHT22;33900;53.640;9.942;2023-11-21T06:58:25;10.40;96.50
15099;DHT22;33900;53.640;9.942;2023-11-21T07:00:50;10.40;96.50
15099;DHT22;33900;53.640;9.942;2023-11-21T07:03:17;10.40;96.50
15099;DHT22;33900;53.640;9.942;2023-11-21T07:05:45;10.40;96.50
15099;DHT22;33900;53.640;9.942;2023-11-21T07:08:10;10.40;96.50
15099;DHT22;33900;53.640;9.942;2023-11-21T07:10:38;10.40;96.50
15099;DHT22;33900;53.640;9.942;2023-11-21T07:13:03;10.40;96.50
15099;DHT22;33900;53.640;9.942;2023-11-21T07:15:29;10.40;96.50
15099;DHT22;33900;53.640;9.942;2023-11-21T07:17:55;10.40;96.50
15099;DHT22;33900;53.640;9.942;2023-11-21T07:20:21;10.40;96.50
15099;DHT22;33900;53.640;9.942;2023-11-21T07:22:47;10.40;96.50
15099;DHT22;33900;53.640;9.942;2023-11-21T07:25:12;10.50;96.60
15099;DHT22;33900;53.640;9.942;2023-11-21T07:27:38;10.40;96.50
15099;DHT22;33900;53.640;9.942;2023-11-21T07:30:04;10.40;96.50
15099;DHT22;33900;53.640;9.942;2023-11-21T07:32:31;10.40;96.50
15099;DHT22;33900;53.640;9.942;2023-11-21T07:34:57;10.40;96.50
15099;DHT22;33900;53.640;9.942;2023-11-21T07:37:25;10.40;96.50
15099;DHT22;33900;53.640;9.942;2023-11-21T07:39:51;10.40;96.60
15099;DHT22;33900;53.640;9.942;2023-11-21T07:42:23;10.40;96.60
15099;DHT22;33900;53.640;9.942;2023-11-21T07:44:49;10.40;96.60
15099;DHT22;33900;53.640;9.942;2023-11-21T07:47:15;10.40;96.60
15099;DHT22;33900;53.640;9.942;2023-11-21T07:49:41;10.40;96.60
15099;DHT22;33900;53.640;9.942;2023-11-21T07:52:09;10.40;96.60
15099;DHT22;33900;53.640;9.942;2023-11-21T07:54:35;10.40;96.60
15099;DHT22;33900;53.640;9.942;2023-11-21T07:57:01;10.50;96.60
15099;DHT22;33900;53.640;9.942;2023-11-21T07:59:29;10.50;96.90
15099;DHT22;33900;53.640;9.942;2023-11-21T08:01:55;10.40;96.60
15099;DHT22;33900;53.640;9.942;2023-11-21T08:04:20;10.40;96.60
15099;DHT22;33900;53.640;9.942;2023-11-21T08:06:46;10.40;96.60
15099;DHT22;33900;53.640;9.942;2023-11-21T08:09:11;10.50;96.60
15099;DHT22;33900;53.640;9.942;2023-11-21T08:11:38;10.50;96.60
15099;DHT22;33900;53.640;9.942;2023-11-21T08:14:04;10.50;96.60
15099;DHT22;33900;53.640;9.942;2023-11-21T08:16:30;10.50;96.60
15099;DHT22;33900;53.640;9.942;2023-11-21T08:18:56;10.50;96.60
15099;DHT22;33900;53.640;9.942;2023-11-21T08:21:22;10.50;96.60
15099;DHT22;33900;53.640;9.942;2023-11-21T08:23:50;10.50;96.60
15099;DHT22;33900;53.640;9.942;2023-11-21T08:26:19;10.50;96.50
15099;DHT22;33900;53.640;9.942;2023-11-21T08:28:45;10.50;96.50
15099;DHT22;33900;53.640;9.942;2023-11-21T08:31:12;10.50;96.50
15099;DHT22;33900;53.640;9.942;2023-11-21T08:33:41;10.50;96.50
15099;DHT22;33900;53.640;9.942;2023-11-21T08:36:07;10.50;96.40
15099;DHT22;33900;53.640;9.942;2023-11-21T08:38:33;10.50;96.40
15099;DHT22;33900;53.640;9.942;2023-11-21T08:41:05;10.50;96.40
15099;DHT22;33900;53.640;9.942;2023-11-21T08:43:36;10.50;96.50
15099;DHT22;33900;53.640;9.942;2023-11-21T08:46:05;10.50;96.40
15099;DHT22;33900;53.640;9.942;2023-11-21T08:48:31;10.60;96.50
15099;DHT22;33900;53.640;9.942;2023-11-21T08:50:57;10.60;96.50
15099;DHT22;33900;53.640;9.942;2023-11-21T08:53:22;10.60;96.40
15099;DHT22;33900;53.640;9.942;2023-11-21T08:55:48;10.60;96.40
15099;DHT22;33900;53.640;9.942;2023-11-21T08:58:15;10.60;96.40
15099;DHT22;33900;53.640;9.942;2023-11-21T09:00:41;10.60;96.50
15099;DHT22;33900;53.640;9.942;2023-11-21T09:03:07;10.60;96.40
15099;DHT22;33900;53.640;9.942;2023-11-21T09:05:37;10.50;96.30
15099;DHT22;33900;53.640;9.942;2023-11-21T09:08:03;10.40;96.20
15099;DHT22;33900;53.640;9.942;2023-11-21T09:10:29;10.50;96.20
15099;DHT22;33900;53.640;9.942;2023-11-21T09:12:55;10.50;96.20
15099;DHT22;33900;53.640;9.942;2023-11-21T09:15:20;10.40;96.20
15099;DHT22;33900;53.640;9.942;2023-11-21T09:17:47;10.40;96.10
15099;DHT22;33900;53.640;9.942;2023-11-21T09:20:12;10.50;96.20
15099;DHT22;33900;53.640;9.942;2023-11-21T09:22:40;10.40;96.20
15099;DHT22;33900;53.640;9.942;2023-11-21T09:25:06;10.40;96.20
15099;DHT22;33900;53.640;9.942;2023-11-21T09:27:34;10.40;96.20
15099;DHT22;33900;53.640;9.942;2023-11-21T09:30:01;10.40;96.20
15099;DHT22;33900;53.640;9.942;2023-11-21T09:32:26;10.40;96.20
15099;DHT22;33900;53.640;9.942;2023-11-21T09:34:52;10.40;96.20
15099;DHT22;33900;53.640;9.942;2023-11-21T09:37:20;10.40;96.20
15099;DHT22;33900;53.640;9.942;2023-11-21T09:39:46;10.40;96.10
15099;DHT22;33900;53.640;9.942;2023-11-21T09:42:15;10.40;96.10
15099;DHT22;33900;53.640;9.942;2023-11-21T09:44:48;10.40;96.00
15099;DHT22;33900;53.640;9.942;2023-11-21T09:47:16;10.40;96.10
15099;DHT22;33900;53.640;9.942;2023-11-21T09:49:44;10.40;96.10
15099;DHT22;33900;53.640;9.942;2023-11-21T09:52:12;10.40;96.00
15099;DHT22;33900;53.640;9.942;2023-11-21T09:54:43;10.30;96.10
15099;DHT22;33900;53.640;9.942;2023-11-21T09:57:09;10.40;96.10
15099;DHT22;33900;53.640;9.942;2023-11-21T09:59:35;10.40;96.10
15099;DHT22;33900;53.640;9.942;2023-11-21T10:02:02;10.40;96.10
15099;DHT22;33900;53.640;9.942;2023-11-21T10:04:28;10.40;96.20
15099;DHT22;33900;53.640;9.942;2023-11-21T10:06:54;10.40;96.20
15099;DHT22;33900;53.640;9.942;2023-11-21T10:09:21;10.40;96.20
15099;DHT22;33900;53.640;9.942;2023-11-21T10:11:49;10.40;96.20
15099;DHT22;33900;53.640;9.942;2023-11-21T10:14:15;10.50;96.20
15099;DHT22;33900;53.640;9.942;2023-11-21T10:16:42;10.50;96.20
15099;DHT22;33900;53.640;9.942;2023-11-21T10:19:10;10.50;96.20
15099;DHT22;33900;53.640;9.942;2023-11-21T10:21:39;10.50;96.20
15099;DHT22;33900;53.640;9.942;2023-11-21T10:24:05;10.60;96.20
15099;DHT22;33900;53.640;9.942;2023-11-21T10:26:31;10.60;96.20
15099;DHT22;33900;53.640;9.942;2023-11-21T10:28:58;10.60;96.20
15099;DHT22;33900;53.640;9.942;2023-11-21T10:31:27;10.60;96.20
15099;DHT22;33900;53.640;9.942;2023-11-21T10:33:52;10.60;96.20
15099;DHT22;33900;53.640;9.942;2023-11-21T10:36:26;10.60;96.20
15099;DHT22;33900;53.640;9.942;2023-11-21T10:38:53;10.60;96.10
15099;DHT22;33900;53.640;9.942;2023-11-21T10:41:19;10.60;96.10
15099;DHT22;33900;53.640;9.942;2023-11-21T10:43:45;10.60;96.00
15099;DHT22;33900;53.640;9.942;2023-11-21T10:46:11;10.60;96.10
15099;DHT22;33900;53.640;9.942;2023-11-21T10:48:36;10.70;96.00
15099;DHT22;33900;53.640;9.942;2023-11-21T10:51:06;10.70;95.90
15099;DHT22;33900;53.640;9.942;2023-11-21T10:53:33;10.60;95.80
15099;DHT22;33900;53.640;9.942;2023-11-21T10:56:02;10.60;95.70
15099;DHT22;33900;53.640;9.942;2023-11-21T10:58:30;10.60;95.50
15099;DHT22;33900;53.640;9.942;2023-11-21T11:00:58;10.60;95.50
15099;DHT22;33900;53.640;9.942;2023-11-21T11:03:24;10.50;95.40
15099;DHT22;33900;53.640;9.942;2023-11-21T11:05:49;10.40;95.30
15099;DHT22;33900;53.640;9.942;2023-11-21T11:08:21;10.60;95.40
15099;DHT22;33900;53.640;9.942;2023-11-21T11:10:51;10.50;95.30
15099;DHT22;33900;53.640;9.942;2023-11-21T11:13:18;10.50;95.10
15099;DHT22;33900;53.640;9.942;2023-11-21T11:15:47;10.50;94.90
15099;DHT22;33900;53.640;9.942;2023-11-21T11:18:12;10.50;95.00
15099;DHT22;33900;53.640;9.942;2023-11-21T11:20:39;10.50;95.00
15099;DHT22;33900;53.640;9.942;2023-11-21T11:28:44;10.50;95.00
15099;DHT22;33900;53.640;9.942;2023-11-21T11:34:56;10.50;94.80
15099;DHT22;33900;53.640;9.942;2023-11-21T11:37:18;10.40;94.80
15099;DHT22;33900;53.640;9.942;2023-11-21T11:39:40;10.40;94.80
15099;DHT22;33900;53.640;9.942;2023-11-21T11:42:13;10.40;94.70
15099;DHT22;33900;53.640;9.942;2023-11-21T11:52:35;10.40;94.50
15099;DHT22;33900;53.640;9.942;2023-11-21T11:55:05;10.40;94.50
15099;DHT22;33900;53.640;9.942;2023-11-21T11:57:31;10.40;94.50
15099;DHT22;33900;53.640;9.942;2023-11-21T12:02:47;10.40;94.50
15099;DHT22;33900;53.640;9.942;2023-11-21T12:05:14;10.40;94.60
15099;DHT22;33900;53.640;9.942;2023-11-21T12:10:12;10.40;94.50
15099;DHT22;33900;53.640;9.942;2023-11-21T12:12:43;10.40;94.50
15099;DHT22;33900;53.640;9.942;2023-11-21T12:15:10;10.40;94.50
15099;DHT22;33900;53.640;9.942;2023-11-21T12:17:37;10.40;94.60
15099;DHT22;33900;53.640;9.942;2023-11-21T12:20:06;10.40;94.50
15099;DHT22;33900;53.640;9.942;2023-11-21T12:22:46;10.40;94.50
15099;DHT22;33900;53.640;9.942;2023-11-21T12:25:18;10.40;94.50
15099;DHT22;33900;53.640;9.942;2023-11-21T12:27:53;10.40;94.50
15099;DHT22;33900;53.640;9.942;2023-11-21T12:30:20;10.40;94.60
15099;DHT22;33900;53.640;9.942;2023-11-21T12:32:48;10.40;94.60
15099;DHT22;33900;53.640;9.942;2023-11-21T12:35:13;10.40;94.70
15099;DHT22;33900;53.640;9.942;2023-11-21T12:37:40;10.40;94.60
15099;DHT22;33900;53.640;9.942;2023-11-21T12:40:08;10.40;94.60
15099;DHT22;33900;53.640;9.942;2023-11-21T12:42:39;10.40;94.70
15099;DHT22;33900;53.640;9.942;2023-11-21T12:45:10;10.30;94.70
15099;DHT22;33900;53.640;9.942;2023-11-21T12:47:43;10.30;94.70
15099;DHT22;33900;53.640;9.942;2023-11-21T12:50:10;10.30;94.70
15099;DHT22;33900;53.640;9.942;2023-11-21T12:52:45;10.30;94.80
15099;DHT22;33900;53.640;9.942;2023-11-21T12:55:13;10.30;94.80
15099;DHT22;33900;53.640;9.942;2023-11-21T12:57:47;10.40;94.90
15099;DHT22;33900;53.640;9.942;2023-11-21T13:00:17;10.30;94.90
15099;DHT22;33900;53.640;9.942;2023-11-21T13:02:56;10.30;94.90
15099;DHT22;33900;53.640;9.942;2023-11-21T13:05:25;10.30;94.90
15099;DHT22;33900;53.640;9.942;2023-11-21T13:07:52;10.30;94.90
15099;DHT22;33900;53.640;9.942;2023-11-21T13:10:25;10.30;94.90
15099;DHT22;33900;53.640;9.942;2023-11-21T13:12:54;10.30;94.80
15099;DHT22;33900;53.640;9.942;2023-11-21T13:15:23;10.20;94.80
15099;DHT22;33900;53.640;9.942;2023-11-21T13:17:50;10.20;94.90
15099;DHT22;33900;53.640;9.942;2023-11-21T13:20:16;10.20;94.80
15099;DHT22;33900;53.640;9.942;2023-11-21T13:22:49;10.20;94.90
15099;DHT22;33900;53.640;9.942;2023-11-21T13:25:16;10.20;95.20
15099;DHT22;33900;53.640;9.942;2023-11-21T13:27:46;10.20;94.90
15099;DHT22;33900;53.640;9.942;2023-11-21T13:30:15;10.20;94.90
15099;DHT22;33900;53.640;9.942;2023-11-21T13:32:42;10.20;95.00
15099;DHT22;33900;53.640;9.942;2023-11-21T13:35:08;10.10;95.00
15099;DHT22;33900;53.640;9.942;2023-11-21T13:37:39;10.20;95.00
15099;DHT22;33900;53.640;9.942;2023-11-21T13:40:05;10.10;95.00
15099;DHT22;33900;53.640;9.942;2023-11-21T13:42:40;10.10;95.00
15099;DHT22;33900;53.640;9.942;2023-11-21T13:45:06;10.20;95.10
15099;DHT22;33900;53.640;9.942;2023-11-21T13:47:32;10.10;95.10
15099;DHT22;33900;53.640;9.942;2023-11-21T13:49:59;10.10;95.20
15099;DHT22;33900;53.640;9.942;2023-11-21T13:52:26;10.10;95.20
15099;DHT22;33900;53.640;9.942;2023-11-21T13:54:53;10.10;95.20
15099;DHT22;33900;53.640;9.942;2023-11-21T13:57:19;10.10;95.20
15099;DHT22;33900;53.640;9.942;2023-11-21T13:59:46;10.10;95.20
15099;DHT22;33900;53.640;9.942;2023-11-21T14:02:11;10.10;95.30
15099;DHT22;33900;53.640;9.942;2023-11-21T14:04:44;10.10;95.30
15099;DHT22;33900;53.640;9.942;2023-11-21T14:07:21;10.10;95.20
15099;DHT22;33900;53.640;9.942;2023-11-21T14:10:03;10.10;95.20
15099;DHT22;33900;53.640;9.942;2023-11-21T14:12:32;10.00;95.00
15099;DHT22;33900;53.640;9.942;2023-11-21T14:15:00;10.00;94.90
15099;DHT22;33900;53.640;9.942;2023-11-21T14:17:26;10.00;94.90
15099;DHT22;33900;53.640;9.942;2023-11-21T14:19:52;10.00;95.00
15099;DHT22;33900;53.640;9.942;2023-11-21T14:22:21;9.90;94.90
15099;DHT22;33900;53.640;9.942;2023-11-21T14:24:46;9.90;94.90
15099;DHT22;33900;53.640;9.942;2023-11-21T14:27:13;9.90;94.90
15099;DHT22;33900;53.640;9.942;2023-11-21T14:29:42;9.90;94.80
15099;DHT22;33900;53.640;9.942;2023-11-21T14:32:10;9.90;94.80
15099;DHT22;33900;53.640;9.942;2023-11-21T14:34:35;9.90;94.80
15099;DHT22;33900;53.640;9.942;2023-11-21T14:37:02;9.80;94.80
15099;DHT22;33900;53.640;9.942;2023-11-21T14:39:30;9.80;94.80
15099;DHT22;33900;53.640;9.942;2023-11-21T14:42:00;9.80;94.80
15099;DHT22;33900;53.640;9.942;2023-11-21T14:44:28;9.80;94.80
15099;DHT22;33900;53.640;9.942;2023-11-21T14:46:58;9.80;94.60
15099;DHT22;33900;53.640;9.942;2023-11-21T14:49:24;9.80;94.70
15099;DHT22;33900;53.640;9.942;2023-11-21T14:51:53;9.90;94.80
15099;DHT22;33900;53.640;9.942;2023-11-21T14:54:32;9.80;94.90
15099;DHT22;33900;53.640;9.942;2023-11-21T14:57:10;9.90;95.00
15099;DHT22;33900;53.640;9.942;2023-11-21T14:59:37;9.90;95.00
15099;DHT22;33900;53.640;9.942;2023-11-21T15:02:03;9.90;94.90
15099;DHT22;33900;53.640;9.942;2023-11-21T15:04:42;9.90;94.90
15099;DHT22;33900;53.640;9.942;2023-11-21T15:07:08;10.00;94.90
15099;DHT22;33900;53.640;9.942;2023-11-21T15:09:34;10.00;94.90
15099;DHT22;33900;53.640;9.942;2023-11-21T15:12:00;10.00;95.00
15099;DHT22;33900;53.640;9.942;2023-11-21T15:14:39;10.00;95.00
15099;DHT22;33900;53.640;9.942;2023-11-21T15:17:05;10.10;95.00
15099;DHT22;33900;53.640;9.942;2023-11-21T15:19:31;10.10;95.10
15099;DHT22;33900;53.640;9.942;2023-11-21T15:21:57;10.10;95.00
15099;DHT22;33900;53.640;9.942;2023-11-21T15:24:23;10.10;95.00
15099;DHT22;33900;53.640;9.942;2023-11-21T15:26:50;10.10;95.00
15099;DHT22;33900;53.640;9.942;2023-11-21T15:29:16;10.10;95.00
15099;DHT22;33900;53.640;9.942;2023-11-21T15:31:42;10.10;95.00
15099;DHT22;33900;53.640;9.942;2023-11-21T15:34:13;10.10;95.00
15099;DHT22;33900;53.640;9.942;2023-11-21T15:36:38;10.20;95.00
15099;DHT22;33900;53.640;9.942;2023-11-21T15:39:04;10.10;95.00
15099;DHT22;33900;53.640;9.942;2023-11-21T15:41:30;10.10;95.00
15099;DHT22;33900;53.640;9.942;2023-11-21T15:43:55;10.20;95.00
15099;DHT22;33900;53.640;9.942;2023-11-21T15:46:22;10.20;95.00
15099;DHT22;33900;53.640;9.942;2023-11-21T15:48:48;10.20;94.90
15099;DHT22;33900;53.640;9.942;2023-11-21T15:51:18;10.20;94.80
15099;DHT22;33900;53.640;9.942;2023-11-21T15:53:44;10.20;94.80
15099;DHT22;33900;53.640;9.942;2023-11-21T15:56:09;10.20;94.80
15099;DHT22;33900;53.640;9.942;2023-11-21T15:58:41;10.20;94.80